createdAt,value
2022-07-30T00:01:41.440Z,101545.03
2022-07-30T00:04:28.715Z,101548.25
2022-07-30T00:07:15.802Z,101543.41
2022-07-30T00:10:04.894Z,101540.19
2022-07-30T00:12:51.960Z,101546.22
2022-07-30T00:15:38.950Z,101537.72
2022-07-30T00:18:25.970Z,101538.91
2022-07-30T00:21:33.275Z,101538.53
2022-07-30T00:24:19.970Z,101544.56
2022-07-30T00:27:06.949Z,101534.09
2022-07-30T00:29:53.939Z,101535.31
2022-07-30T00:32:41.213Z,101537.34
2022-07-30T00:35:28.320Z,101540.94
2022-07-30T00:38:15.273Z,101546.59
2022-07-30T00:41:02.225Z,101559.47
2022-07-30T00:43:49.162Z,101560.28
2022-07-30T00:46:36.187Z,101570.75
2022-07-30T00:49:24.030Z,101574.81
2022-07-30T00:52:11.538Z,101579.63
2022-07-30T00:54:59.958Z,101577.22
2022-07-30T00:57:46.941Z,101584.06
2022-07-30T01:00:34.111Z,101572.00
2022-07-30T01:03:21.253Z,101580.81
2022-07-30T01:06:14.310Z,101583.66
2022-07-30T01:09:01.614Z,101576.75
2022-07-30T01:11:48.746Z,101576.28
2022-07-30T01:14:36.995Z,101581.50
2022-07-30T01:17:24.545Z,101581.91
2022-07-30T01:20:16.236Z,101582.72
2022-07-30T01:23:23.494Z,101580.28
2022-07-30T01:26:14.623Z,101581.09
2022-07-30T01:29:02.973Z,101579.50
2022-07-30T01:31:53.088Z,101580.69
2022-07-30T01:34:42.697Z,101574.59
2022-07-30T01:37:31.798Z,101573.00
2022-07-30T01:40:19.819Z,101565.72
2022-07-30T01:43:09.031Z,101571.38
2022-07-30T01:45:56.952Z,101579.00
2022-07-30T01:48:45.445Z,101572.94
2022-07-30T01:51:37.446Z,101585.47
2022-07-30T01:54:27.218Z,101581.06
2022-07-30T01:57:16.497Z,101574.66
2022-07-30T02:00:06.706Z,101569.00
2022-07-30T02:02:54.472Z,101568.16
2022-07-30T02:05:45.254Z,101577.84
2022-07-30T02:08:41.779Z,101573.81
2022-07-30T02:11:47.475Z,101578.66
2022-07-30T02:14:48.014Z,101588.31
2022-07-30T02:17:45.289Z,101585.91
2022-07-30T02:20:35.834Z,101580.69
2022-07-30T02:23:28.442Z,101581.47
2022-07-30T02:26:21.185Z,101584.31
2022-07-30T02:29:11.566Z,101585.06
2022-07-30T02:32:01.857Z,101589.13
2022-07-30T02:34:54.782Z,101586.72
2022-07-30T02:37:44.482Z,101590.72
2022-07-30T02:40:32.183Z,101593.56
2022-07-30T02:43:21.569Z,101589.91
2022-07-30T02:46:11.804Z,101596.75
2022-07-30T02:48:59.366Z,101600.75
2022-07-30T02:51:50.890Z,101596.31
2022-07-30T02:54:40.155Z,101599.16
2022-07-30T02:57:29.246Z,101597.94
2022-07-30T03:00:17.014Z,101595.91
2022-07-30T03:03:07.321Z,101603.16
2022-07-30T03:05:55.382Z,101594.72
2022-07-30T03:08:44.936Z,101595.94
2022-07-30T03:11:34.467Z,101597.56
2022-07-30T03:14:21.810Z,101592.69
2022-07-30T03:17:15.162Z,101599.59
2022-07-30T03:20:04.543Z,101593.94
2022-07-30T03:22:54.185Z,101593.88
2022-07-30T03:25:42.943Z,101589.06
2022-07-30T03:28:33.038Z,101600.34
2022-07-30T03:31:20.166Z,101605.19
2022-07-30T03:34:09.291Z,101608.03
2022-07-30T03:37:01.336Z,101605.16
2022-07-30T03:39:48.878Z,101612.44
2022-07-30T03:42:36.288Z,101612.50
2022-07-30T03:45:23.638Z,101606.88
2022-07-30T03:48:13.485Z,101614.91
2022-07-30T03:51:03.168Z,101605.63
2022-07-30T03:53:51.728Z,101604.38
2022-07-30T03:56:38.968Z,101612.47
2022-07-30T03:59:26.043Z,101608.41
2022-07-30T04:02:13.639Z,101613.25
2022-07-30T04:05:00.661Z,101613.63
2022-07-30T04:07:47.782Z,101619.72
2022-07-30T04:10:34.818Z,101630.63
2022-07-30T04:13:21.907Z,101622.16
2022-07-30T04:16:41.053Z,101631.88
2022-07-30T04:19:29.670Z,101633.47
2022-07-30T04:22:27.280Z,101634.34
2022-07-30T04:25:24.280Z,101631.59
2022-07-30T04:28:11.981Z,101627.16
2022-07-30T04:30:59.532Z,101628.78
2022-07-30T04:33:47.065Z,101632.00
2022-07-30T04:36:35.856Z,101635.19
2022-07-30T04:39:22.953Z,101646.09
2022-07-30T04:42:10.227Z,101643.66
2022-07-30T04:44:58.009Z,101645.69
2022-07-30T04:47:45.009Z,101643.28
2022-07-30T04:50:35.986Z,101644.88
2022-07-30T04:53:23.831Z,101651.34
2022-07-30T04:56:11.534Z,101649.34
2022-07-30T04:58:59.180Z,101649.34
2022-07-30T05:01:50.559Z,101653.78
2022-07-30T05:04:40.258Z,101644.91
2022-07-30T05:07:28.466Z,101651.34
2022-07-30T05:10:15.590Z,101648.91
2022-07-30T05:13:02.574Z,101639.22
2022-07-30T05:15:49.889Z,101637.50
2022-07-30T05:18:37.351Z,101635.53
2022-07-30T05:21:24.298Z,101635.97
2022-07-30T05:24:15.686Z,101635.97
2022-07-30T05:27:03.144Z,101648.91
2022-07-30T05:29:50.499Z,101646.13
2022-07-30T05:32:37.478Z,101652.16
2022-07-30T05:35:25.870Z,101653.03
2022-07-30T05:38:13.417Z,101647.41
2022-07-30T05:41:00.402Z,101650.69
2022-07-30T05:43:47.478Z,101656.38
2022-07-30T05:46:42.760Z,101650.31
2022-07-30T05:49:29.835Z,101652.41
2022-07-30T05:52:16.895Z,101639.16
2022-07-30T05:55:04.336Z,101640.41
2022-07-30T05:57:51.330Z,101624.25
2022-07-30T06:00:38.310Z,101639.66
2022-07-30T06:03:26.292Z,101636.44
2022-07-30T06:06:13.253Z,101632.41
2022-07-30T06:09:00.215Z,101625.19
2022-07-30T06:11:47.566Z,101620.41
2022-07-30T06:14:34.601Z,101620.81
2022-07-30T06:17:21.590Z,101619.22
2022-07-30T06:20:09.467Z,101626.09
2022-07-30T06:22:56.530Z,101613.97
2022-07-30T06:25:43.587Z,101602.66
2022-07-30T06:28:38.963Z,101586.47
2022-07-30T06:31:26.655Z,101575.16
2022-07-30T06:34:13.731Z,101580.72
2022-07-30T06:37:01.085Z,101564.41
2022-07-30T06:39:57.391Z,101541.78
2022-07-30T06:42:45.857Z,101520.47
2022-07-30T06:45:32.961Z,101522.44
2022-07-30T06:48:20.054Z,101509.97
2022-07-30T06:51:07.082Z,101506.38
2022-07-30T06:53:54.269Z,101517.63
2022-07-30T06:56:41.388Z,101518.41
2022-07-30T06:59:28.621Z,101514.41
2022-07-30T07:02:16.333Z,101512.31
2022-07-30T07:05:03.651Z,101506.25
2022-07-30T07:07:58.651Z,101501.34
2022-07-30T07:10:46.593Z,101492.53
2022-07-30T07:13:34.091Z,101492.44
2022-07-30T07:16:25.332Z,101493.28
2022-07-30T07:19:12.589Z,101488.16
2022-07-30T07:22:19.716Z,101488.50
2022-07-30T07:25:07.028Z,101488.78
2022-07-30T07:28:11.565Z,101488.34
2022-07-30T07:31:00.569Z,101486.66
2022-07-30T07:33:48.337Z,101488.00
2022-07-30T07:36:36.833Z,101470.09
2022-07-30T07:39:24.080Z,101465.25
2022-07-30T07:42:11.148Z,101481.59
2022-07-30T07:44:58.260Z,101476.94
2022-07-30T07:47:51.761Z,101462.34
2022-07-30T07:50:40.827Z,101458.28
2022-07-30T07:53:28.360Z,101442.78
2022-07-30T07:56:15.525Z,101433.78
2022-07-30T07:59:02.617Z,101470.31
2022-07-30T08:01:51.227Z,101454.53
2022-07-30T08:04:38.524Z,101452.59
2022-07-30T08:07:25.608Z,101440.28
2022-07-30T08:10:16.204Z,101465.50
2022-07-30T08:13:05.220Z,101461.97
2022-07-30T08:15:52.340Z,101464.03
2022-07-30T08:18:39.451Z,101455.94
2022-07-30T08:21:26.763Z,101434.09
2022-07-30T08:24:13.804Z,101442.75
2022-07-30T08:27:01.176Z,101430.25
2022-07-30T08:29:48.369Z,101413.16
2022-07-30T08:32:36.600Z,101440.78
2022-07-30T08:35:23.733Z,101437.50
2022-07-30T08:38:10.951Z,101447.31
2022-07-30T08:40:58.503Z,101434.94
2022-07-30T08:43:47.825Z,101443.97
2022-07-30T08:46:36.401Z,101440.00
2022-07-30T08:49:24.266Z,101431.75
2022-07-30T08:52:11.575Z,101426.81
2022-07-30T08:55:00.976Z,101452.81
2022-07-30T08:57:48.916Z,101442.78
2022-07-30T09:00:36.003Z,101459.31
2022-07-30T09:03:23.593Z,101466.97
2022-07-30T09:06:10.652Z,101455.94
2022-07-30T09:08:57.722Z,101470.63
2022-07-30T09:11:44.798Z,101474.13
2022-07-30T09:14:31.870Z,101475.13
2022-07-30T09:17:18.991Z,101469.41
2022-07-30T09:20:06.825Z,101467.53
2022-07-30T09:22:56.181Z,101467.38
2022-07-30T09:25:46.118Z,101475.34
2022-07-30T09:28:35.097Z,101464.22
2022-07-30T09:31:23.929Z,101463.53
2022-07-30T09:34:32.829Z,101474.94
2022-07-30T09:37:20.025Z,101484.25
2022-07-30T09:40:14.950Z,101480.09
2022-07-30T09:43:07.092Z,101473.13
2022-07-30T09:45:58.530Z,101467.84
2022-07-30T09:48:48.673Z,101479.25
2022-07-30T09:51:54.424Z,101491.94
2022-07-30T09:54:51.828Z,101493.47
2022-07-30T09:57:58.693Z,101491.25
2022-07-30T10:00:46.178Z,101485.00
2022-07-30T10:03:41.865Z,101466.28
2022-07-30T10:06:34.411Z,101481.50
2022-07-30T10:09:27.203Z,101474.69
2022-07-30T10:12:15.290Z,101485.31
2022-07-30T10:15:06.049Z,101469.88
2022-07-30T10:17:54.429Z,101464.28
2022-07-30T10:20:43.064Z,101484.63
2022-07-30T10:23:32.969Z,101472.09
2022-07-30T10:26:21.118Z,101461.41
2022-07-30T10:29:08.347Z,101456.50
2022-07-30T10:32:00.938Z,101462.66
2022-07-30T10:34:48.963Z,101443.94
2022-07-30T10:37:39.156Z,101430.59
2022-07-30T10:40:36.092Z,101436.66
2022-07-30T10:43:48.283Z,101457.22
2022-07-30T10:46:59.753Z,101450.56
2022-07-30T10:50:14.025Z,101444.63
2022-07-30T10:53:02.794Z,101419.09
2022-07-30T10:56:14.624Z,101449.38
2022-07-30T10:59:02.931Z,101431.13
2022-07-30T11:01:53.547Z,101429.59
2022-07-30T11:04:40.804Z,101423.22
2022-07-30T11:07:30.228Z,101425.19
2022-07-30T11:10:36.969Z,101440.53
2022-07-30T11:13:55.264Z,101449.28
2022-07-30T11:16:42.829Z,101433.66
2022-07-30T11:19:55.602Z,101431.56
2022-07-30T11:22:39.362Z,101448.66
2022-07-30T11:25:27.516Z,101435.13
2022-07-30T11:28:39.532Z,101419.59
2022-07-30T11:31:57.034Z,101431.72
2022-07-30T11:34:44.725Z,101445.31
2022-07-30T11:37:57.603Z,101401.75
2022-07-30T11:40:48.767Z,101402.72
2022-07-30T11:43:37.062Z,101411.81
2022-07-30T11:46:28.605Z,101403.03
2022-07-30T11:49:17.234Z,101400.09
2022-07-30T11:52:04.850Z,101399.66
2022-07-30T11:54:55.813Z,101404.78
2022-07-30T11:57:43.161Z,101399.72
2022-07-30T12:00:38.207Z,101387.56
2022-07-30T12:03:27.334Z,101412.34
2022-07-30T12:06:23.961Z,101382.78
2022-07-30T12:09:11.669Z,101391.13
2022-07-30T12:11:58.922Z,101385.97
2022-07-30T12:14:47.984Z,101404.75
2022-07-30T12:17:45.691Z,101400.28
2022-07-30T12:20:32.761Z,101416.31
2022-07-30T12:23:21.706Z,101384.59
2022-07-30T12:26:20.567Z,101375.91
2022-07-30T12:29:14.146Z,101396.13
2022-07-30T12:32:02.432Z,101394.72
2022-07-30T12:34:56.402Z,101363.38
2022-07-30T12:38:03.331Z,101395.28
2022-07-30T12:40:51.109Z,101409.41
2022-07-30T12:43:52.730Z,101383.69
2022-07-30T12:46:41.455Z,101402.28
2022-07-30T12:49:36.725Z,101406.31
2022-07-30T12:52:35.324Z,101364.50
2022-07-30T12:55:33.704Z,101371.69
2022-07-30T12:58:20.836Z,101365.84
2022-07-30T13:01:09.637Z,101393.81
2022-07-30T13:04:05.507Z,101390.81
2022-07-30T13:07:12.421Z,101390.91
2022-07-30T13:10:13.213Z,101368.50
2022-07-30T13:13:00.330Z,101386.50
2022-07-30T13:15:57.649Z,101351.72
2022-07-30T13:18:44.717Z,101360.41
2022-07-30T13:21:31.890Z,101365.41
2022-07-30T13:24:19.602Z,101366.69
2022-07-30T13:27:07.055Z,101396.63
2022-07-30T13:29:54.403Z,101342.84
2022-07-30T13:32:41.485Z,101355.50
2022-07-30T13:35:28.633Z,101362.50
2022-07-30T13:38:15.834Z,101355.97
2022-07-30T13:41:04.473Z,101389.94
2022-07-30T13:43:51.554Z,101366.16
2022-07-30T13:46:41.138Z,101357.78
2022-07-30T13:49:28.531Z,101339.09
2022-07-30T13:52:17.334Z,101323.22
2022-07-30T13:55:04.546Z,101337.38
2022-07-30T13:57:51.579Z,101332.03
2022-07-30T14:00:38.965Z,101334.88
2022-07-30T14:03:25.938Z,101336.78
2022-07-30T14:06:12.943Z,101325.19
2022-07-30T14:09:00.006Z,101323.13
2022-07-30T14:11:46.970Z,101335.72
2022-07-30T14:14:34.046Z,101333.59
2022-07-30T14:17:21.074Z,101323.25
2022-07-30T14:20:08.357Z,101317.19
2022-07-30T14:22:55.585Z,101321.97
2022-07-30T14:25:44.222Z,101316.00
2022-07-30T14:28:31.220Z,101313.63
2022-07-30T14:31:18.260Z,101331.16
2022-07-30T14:34:05.388Z,101314.25
2022-07-30T14:36:52.883Z,101335.66
2022-07-30T14:39:39.998Z,101328.16
2022-07-30T14:42:26.978Z,101348.94
2022-07-30T14:45:14.168Z,101341.72
2022-07-30T14:48:01.319Z,101352.34
2022-07-30T14:51:12.945Z,101347.34
2022-07-30T14:53:57.393Z,101330.88
2022-07-30T14:56:44.355Z,101326.34
2022-07-30T14:59:31.332Z,101321.56
2022-07-30T15:02:18.321Z,101309.50
2022-07-30T15:05:06.137Z,101353.81
2022-07-30T15:07:53.159Z,101300.97
2022-07-30T15:10:40.530Z,101340.41
2022-07-30T15:13:29.261Z,101362.06
2022-07-30T15:16:19.524Z,101316.44
2022-07-30T15:19:06.563Z,101328.84
2022-07-30T15:21:53.602Z,101346.41
2022-07-30T15:24:40.818Z,101339.72
2022-07-30T15:27:34.060Z,101351.09
2022-07-30T15:30:21.621Z,101339.53
2022-07-30T15:33:08.726Z,101332.09
2022-07-30T15:35:55.704Z,101347.13
2022-07-30T15:38:43.529Z,101338.16
2022-07-30T15:41:30.582Z,101335.16
2022-07-30T15:44:17.597Z,101333.69
2022-07-30T15:47:11.473Z,101324.38
2022-07-30T15:50:00.208Z,101322.44
2022-07-30T15:52:47.270Z,101329.84
2022-07-30T15:55:47.508Z,101330.63
2022-07-30T15:58:36.154Z,101276.16
2022-07-30T16:01:24.513Z,101265.78
2022-07-30T16:04:19.281Z,101284.63
2022-07-30T16:07:08.035Z,101290.22
2022-07-30T16:09:55.085Z,101267.09
2022-07-30T16:12:42.280Z,101292.00
2022-07-30T16:15:29.382Z,101293.00
2022-07-30T16:18:16.563Z,101300.28
2022-07-30T16:21:03.720Z,101295.19
2022-07-30T16:23:52.690Z,101298.88
2022-07-30T16:26:39.824Z,101322.59
2022-07-30T16:29:27.957Z,101332.19
2022-07-30T16:32:15.110Z,101322.34
2022-07-30T16:35:02.140Z,101323.31
2022-07-30T16:37:49.239Z,101334.56
2022-07-30T16:40:36.341Z,101319.97
2022-07-30T16:43:23.698Z,101313.75
2022-07-30T16:46:13.600Z,101328.97
2022-07-30T16:49:00.732Z,101314.97
2022-07-30T16:51:47.870Z,101305.59
2022-07-30T16:54:35.033Z,101332.44
2022-07-30T16:57:22.068Z,101334.63
2022-07-30T17:00:10.301Z,101300.44
2022-07-30T17:02:57.329Z,101314.75
2022-07-30T17:05:45.091Z,101333.59
2022-07-30T17:08:32.931Z,101298.41
2022-07-30T17:11:46.455Z,101299.00
2022-07-30T17:14:27.833Z,101290.75
2022-07-30T17:17:14.903Z,101278.63
2022-07-30T17:20:04.023Z,101301.56
2022-07-30T17:22:51.071Z,101296.91
2022-07-30T17:25:38.232Z,101324.50
2022-07-30T17:28:26.900Z,101302.06
2022-07-30T17:31:14.426Z,101284.59
2022-07-30T17:34:01.459Z,101288.66
2022-07-30T17:36:52.941Z,101285.28
2022-07-30T17:40:19.038Z,101285.41
2022-07-30T17:42:47.703Z,101303.72
2022-07-30T17:45:36.370Z,101315.22
2022-07-30T17:48:23.498Z,101309.88
2022-07-30T17:51:10.585Z,101298.03
2022-07-30T17:53:57.654Z,101299.97
2022-07-30T17:56:44.712Z,101303.31
2022-07-30T17:59:32.215Z,101307.94
2022-07-30T18:02:24.019Z,101299.25
2022-07-30T18:05:15.754Z,101310.25
2022-07-30T18:08:02.815Z,101304.88
2022-07-30T18:10:50.845Z,101313.50
2022-07-30T18:13:38.147Z,101319.03
2022-07-30T18:16:25.614Z,101326.69
2022-07-30T18:19:26.922Z,101330.81
2022-07-30T18:22:14.813Z,101331.53
2022-07-30T18:25:02.242Z,101329.50
2022-07-30T18:27:56.059Z,101334.28
2022-07-30T18:30:43.643Z,101346.16
2022-07-30T18:33:30.737Z,101354.16
2022-07-30T18:36:17.757Z,101366.09
2022-07-30T18:39:04.866Z,101369.19
2022-07-30T18:41:51.954Z,101381.53
2022-07-30T18:44:39.029Z,101345.81
2022-07-30T18:47:26.116Z,101340.31
2022-07-30T18:50:14.865Z,101344.66
2022-07-30T18:53:01.970Z,101345.03
2022-07-30T18:56:03.027Z,101342.53
2022-07-30T18:58:50.114Z,101351.09
2022-07-30T19:01:39.285Z,101356.69
2022-07-30T19:04:26.634Z,101357.81
2022-07-30T19:07:13.666Z,101363.78
2022-07-30T19:10:00.921Z,101382.91
2022-07-30T19:12:47.928Z,101385.13
2022-07-30T19:15:35.052Z,101372.19
2022-07-30T19:18:22.106Z,101360.00
2022-07-30T19:21:13.713Z,101376.38
2022-07-30T19:24:01.889Z,101381.66
2022-07-30T19:26:49.734Z,101396.78
2022-07-30T19:29:37.113Z,101400.41
2022-07-30T19:32:24.230Z,101396.31
2022-07-30T19:35:14.500Z,101425.41
2022-07-30T19:38:02.132Z,101450.66
2022-07-30T19:40:49.943Z,101456.88
2022-07-30T19:43:37.168Z,101472.25
2022-07-30T19:46:26.407Z,101466.66
2022-07-30T19:49:13.715Z,101475.06
2022-07-30T19:52:17.435Z,101477.13
2022-07-30T19:55:17.283Z,101483.09
2022-07-30T19:58:17.694Z,101481.03
2022-07-30T20:01:08.315Z,101484.50
2022-07-30T20:03:55.960Z,101494.06
2022-07-30T20:06:49.574Z,101493.88
2022-07-30T20:09:36.671Z,101499.00
2022-07-30T20:12:25.372Z,101508.94
2022-07-30T20:15:14.882Z,101498.28
2022-07-30T20:18:03.177Z,101517.44
2022-07-30T20:20:50.498Z,101512.63
2022-07-30T20:23:38.130Z,101517.97
2022-07-30T20:26:29.140Z,101516.03
2022-07-30T20:29:19.299Z,101513.63
2022-07-30T20:32:09.333Z,101516.25
2022-07-30T20:34:58.327Z,101517.06
2022-07-30T20:40:53.454Z,101520.41
2022-07-30T20:43:45.978Z,101516.41
2022-07-30T20:46:39.445Z,101515.63
2022-07-30T20:49:34.082Z,101516.06
2022-07-30T20:52:22.838Z,101512.06
2022-07-30T20:55:14.328Z,101515.72
2022-07-30T20:58:13.887Z,101521.00
2022-07-30T21:01:04.890Z,101527.09
2022-07-30T21:03:52.019Z,101519.03
2022-07-30T21:06:44.505Z,101528.72
2022-07-30T21:09:52.250Z,101522.25
2022-07-30T21:12:39.623Z,101529.94
2022-07-30T21:15:26.962Z,101529.53
2022-07-30T21:18:19.480Z,101526.28
2022-07-30T21:21:08.024Z,101524.25
2022-07-30T21:23:59.522Z,101530.31
2022-07-30T21:26:51.390Z,101531.97
2022-07-30T21:29:39.376Z,101535.16
2022-07-30T21:32:26.847Z,101522.22
2022-07-30T21:35:14.674Z,101529.09
2022-07-30T21:38:02.475Z,101538.41
2022-07-30T21:40:50.158Z,101532.72
2022-07-30T21:43:37.191Z,101539.59
2022-07-30T21:46:26.946Z,101539.22
2022-07-30T21:49:14.058Z,101534.38
2022-07-30T21:52:01.892Z,101544.09
2022-07-30T21:54:50.385Z,101545.69
2022-07-30T21:57:37.616Z,101543.28
2022-07-30T22:00:44.750Z,101547.28
2022-07-30T22:04:04.728Z,101552.06
2022-07-30T22:06:41.707Z,101552.91
2022-07-30T22:09:34.074Z,101556.53
2022-07-30T22:12:21.418Z,101557.81
2022-07-30T22:15:12.854Z,101559.44
2022-07-30T22:18:02.355Z,101553.78
2022-07-30T22:20:52.020Z,101553.78
2022-07-30T22:23:39.161Z,101552.19
2022-07-30T22:26:26.639Z,101552.19
2022-07-30T22:29:14.136Z,101549.44
2022-07-30T22:32:04.007Z,101543.38
2022-07-30T22:34:51.852Z,101540.19
2022-07-30T22:37:39.938Z,101539.00
2022-07-30T22:40:27.161Z,101533.34
2022-07-30T22:43:15.915Z,101537.75
2022-07-30T22:46:03.050Z,101539.38
2022-07-30T22:49:02.106Z,101536.56
2022-07-30T22:52:02.108Z,101539.78
2022-07-30T22:54:55.438Z,101522.41
2022-07-30T22:57:43.267Z,101526.06
2022-07-30T23:00:34.625Z,101517.59
2022-07-30T23:03:21.633Z,101515.19
2022-07-30T23:06:14.487Z,101520.44
2022-07-30T23:09:03.451Z,101511.16
2022-07-30T23:11:50.603Z,101515.22
2022-07-30T23:12:19.444Z,101519.16
2022-07-30T23:14:37.915Z,101522.50
2022-07-30T23:17:25.759Z,101516.88
2022-07-30T23:20:16.346Z,101519.31
2022-07-30T23:23:03.395Z,101516.06
2022-07-30T23:25:50.409Z,101514.50
2022-07-30T23:28:37.815Z,101515.31
2022-07-30T23:31:26.911Z,101507.25
2022-07-30T23:34:14.166Z,101508.47
2022-07-30T23:37:09.675Z,101506.50
2022-07-30T23:39:59.966Z,101497.66
2022-07-30T23:42:47.851Z,101503.69
2022-07-30T23:45:34.830Z,101513.00
2022-07-30T23:48:22.343Z,101499.69
2022-07-30T23:51:09.402Z,101500.09
2022-07-30T23:53:56.607Z,101493.25
2022-07-30T23:56:43.711Z,101496.09
2022-07-30T23:59:40.701Z,101502.13
